Monte Alegre — DFWV2 — position and weather

sailwx.info

Track history (hours):
 
Tides and Currents Weather Stations Pressure Air Temp Water Temp Dewpoint Dewpoint Depression Visibility Wind Speed Wind Dir Waves Ship Positions

Monte Alegre

Last reported at 2017-Nov-18 06:00 UTC. Time now 2017-Nov-19 19:58 UTC.
Position N 33°06' E 026°30'.

Length 272 m; draft 11.5 m.

Type: Ship. MMSI: 218744000.

Wind from 260 at 7 knots

Barometer 1013.8 mb
Air temperature 19.7 ° C
Visibility: greater than 10.8 NM
Dewpoint 14.3 ° C
Water temperature 19.0 ° C

Date/timePositionNaut miles runAvg speedWind from/ knotsBaromVisibWave heightAir tempDewpointWater temp
2017-Nov-18 06:00N 33°06' E 026°30'47419.7 260 / 71013.810.8 19.714.319.0
2017-Nov-17 06:00N 35°12' E 017°18'10116.8 270 / 161012.010.8 18.310.619.0
2017-Nov-17 00:00N 35°36' E 015°18'2417.0 310 / 71012.2 5.4 16.9 7.518.0
2017-Nov-16 22:36N 35°44' E 014°51'218.5
2017-Nov-16 22:30N 35°45' E 014°48'918.5
2017-Nov-16 22:00N 35°47' E 014°38'5 9.5
2017-Nov-16 21:29N 35°49' E 014°32'0 0.0
2017-Nov-16 15:30N 35°49' E 014°32'0 0.0
2017-Nov-16 06:18N 35°49' E 014°32'0 1.0
2017-Nov-16 06:00N 35°49' E 014°33'2 4.9
2017-Nov-16 05:30N 35°48' E 014°35'1 1.3
2017-Nov-16 05:00N 35°48' E 014°35'4 8.9
2017-Nov-16 04:30N 35°45' E 014°31'815.7
2017-Nov-16 04:00N 35°46' E 014°21'1019.1
2017-Nov-16 03:30N 35°52' E 014°12'1019.1
2017-Nov-16 03:00N 35°57' E 014°02'1019.2
2017-Nov-16 02:30N 36°02' E 013°52'1018.9
2017-Nov-16 01:59N 36°07' E 013°41'918.9
2017-Nov-16 01:30N 36°12' E 013°32'2818.9
2017-Nov-16 00:00N 36°24' E 013°00'11318.9 020 / 231006.5 5.4 15.0 8.517.0
2017-Nov-15 18:00N 37°24' E 011°00'11919.9 020 / 261008.010.8 15.7 9.117.0
2017-Nov-15 12:00N 37°30' E 008°30'32818.2 360 / 241012.6 5.4 16.414.217.0
2017-Nov-14 18:00N 36°48' E 001°42'21417.8 040 / 121018.310.8 16.3 3.417.0
2017-Nov-14 06:00N 36°18' W 002°42'12319.5 030 / 141015.610.8 17.4 7.417.0
2017-Nov-13 23:39N 36°00' W 005°13'321.4
2017-Nov-13 23:30N 35°59' W 005°17'1019.6
2017-Nov-13 23:00N 35°56' W 005°28'26 1.5
2017-Nov-13 06:00N 35°54' W 006°00'54 9.0 280 / 111018.910.8 17.413.918.0
2017-Nov-13 00:00N 36°00' W 007°06'5217.1 340 / 121020.610.8 19.212.219.0
2017-Nov-12 20:56N 36°19' W 008°06'1116.2
2017-Nov-12 20:16N 36°21' W 008°20'3216.0
2017-Nov-12 18:15N 36°30' W 008°58'2 6.6
2017-Nov-12 18:00N 36°30' W 009°00'1020.8 350 / 151021.910.8 16.413.118.0
2017-Nov-12 17:31N 36°33' W 009°11'515.3
2017-Nov-12 17:10N 36°36' W 009°18'416.2
2017-Nov-12 16:57N 36°38' W 009°21'716.2
2017-Nov-12 16:30N 36°44' W 009°27'816.3
2017-Nov-12 16:00N 36°50' W 009°33'816.3
2017-Nov-12 15:30N 36°58' W 009°36'816.3
2017-Nov-12 14:59N 37°06' W 009°38'816.4
2017-Nov-12 14:30N 37°13' W 009°41'916.2
2017-Nov-12 13:57N 37°22' W 009°44'716.6
2017-Nov-12 13:30N 37°29' W 009°46'816.5
2017-Nov-12 13:00N 37°37' W 009°48'816.3
2017-Nov-12 12:30N 37°45' W 009°51'816.1
2017-Nov-12 12:00N 37°53' W 009°53'816.5
2017-Nov-12 11:30N 38°01' W 009°55'816.2
2017-Nov-12 11:00N 38°09' W 009°58'816.1
2017-Nov-12 10:30N 38°17' W 009°60'815.8
2017-Nov-12 10:00N 38°25' W 010°02'815.7
2017-Nov-12 09:30N 38°32' W 010°05'815.6
2017-Nov-12 09:00N 38°40' W 010°07'815.4
2017-Nov-12 08:30N 38°48' W 010°07'815.6
2017-Nov-12 08:00N 38°55' W 010°07'815.6
2017-Nov-12 07:30N 39°03' W 010°07'815.6
2017-Nov-12 07:00N 39°11' W 010°07'815.9
2017-Nov-12 06:30N 39°19' W 010°07'816.3
2017-Nov-12 06:00N 39°27' W 010°08'151031.9
2017-Nov-12 06:00N 39°42' W 010°06'712.8 350 / 191026.710.8 16.611.715.0
2017-Nov-12 05:29N 39°36' W 010°07'7216.1
2017-Nov-12 01:00N 40°48' W 010°06'10815.4 020 / 141028.810.8 15.1 7.916.0
2017-Nov-11 18:00N 42°36' W 010°06'20116.8 360 / 181030.310.8 16.511.215.0
2017-Nov-11 06:00N 45°42' W 008°18'6912.6 280 / 171030.610.8 15.511.815.0
2017-Nov-11 00:30N 46°44' W 007°34'2752.6
2017-Nov-11 00:00N 46°18' W 007°24'4063.7 320 / 151030.510.8 14.811.012.0
2017-Nov-10 23:22N 46°58' W 007°21'815.1
2017-Nov-10 22:50N 47°05' W 007°15'1215.5
2017-Nov-10 22:05N 47°15' W 007°07'515.1
2017-Nov-10 21:44N 47°20' W 007°03'515.1
2017-Nov-10 21:23N 47°24' W 006°58'614.9
2017-Nov-10 21:00N 47°29' W 006°54'1514.7
2017-Nov-10 20:00N 47°42' W 006°44'2414.5
2017-Nov-10 18:21N 48°02' W 006°26'617.5
2017-Nov-10 18:00N 48°06' W 006°18'914.9 300 / 181030.4 5.4 12.911.312.0
2017-Nov-10 17:22N 48°15' W 006°16'615.1
2017-Nov-10 16:58N 48°20' W 006°12'715.3
2017-Nov-10 16:30N 48°27' W 006°07'815.6
2017-Nov-10 16:00N 48°34' W 006°01'815.8
2017-Nov-10 15:30N 48°40' W 005°55'816.2
2017-Nov-10 15:00N 48°48' W 005°49'713.4
2017-Nov-10 14:30N 48°53' W 005°43'612.1
2017-Nov-10 14:00N 48°57' W 005°37'611.9
2017-Nov-10 13:30N 49°01' W 005°30'3111.1
2017-Nov-10 10:44N 49°16' W 004°49'5010.6
2017-Nov-10 06:00N 49°42' W 003°42'1110.2 280 / 241023.610.8 13.410.413.0
2017-Nov-10 04:52N 49°47' W 003°26'412.3
2017-Nov-10 04:30N 49°49' W 003°20'612.3
2017-Nov-10 04:00N 49°52' W 003°12'612.2
2017-Nov-10 03:30N 49°55' W 003°04'611.8
2017-Nov-10 03:00N 49°58' W 002°56'611.3
2017-Nov-10 02:30N 49°60' W 002°47'510.9
2017-Nov-10 02:00N 50°01' W 002°39'510.4
2017-Nov-10 01:30N 50°02' W 002°31'5 9.9
2017-Nov-10 01:00N 50°04' W 002°24'7 9.2
2017-Nov-10 00:15N 50°05' W 002°13'517.8
2017-Nov-10 00:00N 50°06' W 002°06'2217.9 290 / 61024.210.8 13.010.013.0
2017-Nov-09 23:59N 50°06' W 002°10'4 8.7
2017-Nov-09 23:31N 50°07' W 002°03'4 8.8
2017-Nov-09 23:00N 50°08' W 001°57'5 9.3
2017-Nov-09 22:30N 50°10' W 001°50'5 9.9
2017-Nov-09 22:00N 50°11' W 001°42'510.6
2017-Nov-09 21:30N 50°12' W 001°34'611.4
2017-Nov-09 21:00N 50°14' W 001°26'612.3
2017-Nov-09 20:30N 50°15' W 001°17'713.3
2017-Nov-09 20:01N 50°17' W 001°07'713.9
2017-Nov-09 19:30N 50°19' W 000°56'714.0
2017-Nov-09 19:01N 50°21' W 000°46'244239.5
2017-Nov-09 18:00N 54°24' W 000°24'2402134.4 270 / 101023.610.8 13.8 8.813.0
2017-Nov-09 17:53N 50°24' W 000°22'614.1
2017-Nov-09 17:27N 50°26' W 000°13'715.1
2017-Nov-09 17:00N 50°28' W 000°02'714.8
2017-Nov-09 16:30N 50°30' E 000°09'714.4
2017-Nov-09 16:00N 50°32' E 000°20'714.0
2017-Nov-09 15:30N 50°34' E 000°30'713.3
2017-Nov-09 15:00N 50°37' E 000°40'713.1
2017-Nov-09 14:30N 50°41' E 000°48'612.7
2017-Nov-09 14:00N 50°45' E 000°56'612.6
2017-Nov-09 13:30N 50°49' E 001°04'612.7
2017-Nov-09 13:00N 50°53' E 001°12'713.4
2017-Nov-09 12:30N 50°57' E 001°20'714.6
2017-Nov-09 12:00N 51°02' E 001°28'815.7
2017-Nov-09 11:30N 51°07' E 001°37'815.9
2017-Nov-09 11:00N 51°14' E 001°45'815.8
2017-Nov-09 10:30N 51°21' E 001°51'714.7
2017-Nov-09 10:00N 51°27' E 001°57'714.4
2017-Nov-09 09:30N 51°32' E 002°05'713.8
2017-Nov-09 09:00N 51°37' E 002°13'713.6
2017-Nov-09 08:30N 51°42' E 002°20'713.1
2017-Nov-09 08:00N 51°47' E 002°27'612.9
2017-Nov-09 07:30N 51°52' E 002°33'612.7
2017-Nov-09 07:00N 51°57' E 002°40'612.4
2017-Nov-09 06:30N 52°02' E 002°46'612.3
2017-Nov-09 06:00N 52°07' E 002°53'7737.0
2017-Nov-09 06:00N 52°00' E 002°48'2118.6 270 / 101022.010.8 9.6 4.814.0
2017-Nov-09 04:50N 52°19' E 003°04'512.6
2017-Nov-09 04:29N 52°23' E 003°08'1613.3
2017-Nov-09 03:18N 52°35' E 003°25'614.3
2017-Nov-09 02:54N 52°39' E 003°31'614.6
2017-Nov-09 02:30N 52°44' E 003°37'714.8
2017-Nov-09 02:00N 52°50' E 003°44'714.7
2017-Nov-09 01:30N 52°54' E 003°53'714.8
2017-Nov-09 01:00N 52°59' E 004°03'714.8
2017-Nov-09 00:30N 53°03' E 004°13'714.7
2017-Nov-09 00:00N 53°09' E 004°21'714.5
2017-Nov-08 23:30N 53°15' E 004°28'1613.3
2017-Nov-08 22:19N 53°29' E 004°40'513.2
2017-Nov-08 21:58N 53°31' E 004°47'613.0
2017-Nov-08 21:30N 53°34' E 004°56'612.8
2017-Nov-08 21:00N 53°36' E 005°06'612.7
2017-Nov-08 20:30N 53°38' E 005°16'613.0
2017-Nov-08 20:00N 53°40' E 005°27'713.5
2017-Nov-08 19:31N 53°43' E 005°37'7314.9
2017-Nov-08 14:38N 54°01' E 007°36'213.6
2017-Nov-08 14:30N 54°02' E 007°39'713.5
2017-Nov-08 14:00N 54°02' E 007°51'713.7
2017-Nov-08 13:31N 54°01' E 008°02'713.1
2017-Nov-08 13:00N 54°00' E 008°13'714.7
2017-Nov-08 12:30N 53°59' E 008°25'714.9
2017-Nov-08 12:00N 53°57' E 008°38'612.2
2017-Nov-08 11:30N 53°52' E 008°44'612.7
2017-Nov-08 11:00N 53°51' E 008°54'815.3
2017-Nov-08 10:30N 53°53' E 009°06'612.3
2017-Nov-08 10:00N 53°52' E 009°17'815.5
2017-Nov-08 09:31N 53°46' E 009°24'815.3
2017-Nov-08 09:01N 53°39' E 009°31'714.2
2017-Nov-08 08:31N 53°34' E 009°39'611.4
2017-Nov-08 08:00N 53°33' E 009°49'5 9.0
2017-Nov-08 07:30N 53°32' E 009°56'2 3.3
2017-Nov-08 07:00N 53°30' E 009°56'0 0.0
2017-Nov-08 06:29N 53°30' E 009°56'  
Track history (hours):
 
Tides and Currents Weather Stations Pressure Air Temp Water Temp Dewpoint Dewpoint Depression Visibility Wind Speed Wind Dir Waves Ship Positions

Monte Alegre

Last reported at 2017-Nov-18 06:00 UTC. Time now 2017-Nov-19 19:58 UTC.
Position N 33°06' E 026°30'.

Length 272 m; draft 11.5 m.

Type: Ship. MMSI: 218744000.

Wind from 260 at 7 knots

Barometer 1013.8 mb
Air temperature 19.7 ° C
Visibility: greater than 10.8 NM
Dewpoint 14.3 ° C
Water temperature 19.0 ° C

Date/timePositionNaut miles runAvg speedWind from/ knotsBaromVisibWave heightAir tempDewpointWater temp
2017-Nov-18 06:00N 33°06' E 026°30'47419.7 260 / 71013.810.8 19.714.319.0
2017-Nov-17 06:00N 35°12' E 017°18'10116.8 270 / 161012.010.8 18.310.619.0
2017-Nov-17 00:00N 35°36' E 015°18'2417.0 310 / 71012.2 5.4 16.9 7.518.0
2017-Nov-16 22:36N 35°44' E 014°51'218.5
2017-Nov-16 22:30N 35°45' E 014°48'918.5
2017-Nov-16 22:00N 35°47' E 014°38'5 9.5
2017-Nov-16 21:29N 35°49' E 014°32'0 0.0
2017-Nov-16 15:30N 35°49' E 014°32'0 0.0
2017-Nov-16 06:18N 35°49' E 014°32'0 1.0
2017-Nov-16 06:00N 35°49' E 014°33'2 4.9
2017-Nov-16 05:30N 35°48' E 014°35'1 1.3
2017-Nov-16 05:00N 35°48' E 014°35'4 8.9
2017-Nov-16 04:30N 35°45' E 014°31'815.7
2017-Nov-16 04:00N 35°46' E 014°21'1019.1
2017-Nov-16 03:30N 35°52' E 014°12'1019.1
2017-Nov-16 03:00N 35°57' E 014°02'1019.2
2017-Nov-16 02:30N 36°02' E 013°52'1018.9
2017-Nov-16 01:59N 36°07' E 013°41'918.9
2017-Nov-16 01:30N 36°12' E 013°32'2818.9
2017-Nov-16 00:00N 36°24' E 013°00'11318.9 020 / 231006.5 5.4 15.0 8.517.0
2017-Nov-15 18:00N 37°24' E 011°00'11919.9 020 / 261008.010.8 15.7 9.117.0
2017-Nov-15 12:00N 37°30' E 008°30'32818.2 360 / 241012.6 5.4 16.414.217.0
2017-Nov-14 18:00N 36°48' E 001°42'21417.8 040 / 121018.310.8 16.3 3.417.0
2017-Nov-14 06:00N 36°18' W 002°42'12319.5 030 / 141015.610.8 17.4 7.417.0
2017-Nov-13 23:39N 36°00' W 005°13'321.4
2017-Nov-13 23:30N 35°59' W 005°17'1019.6
2017-Nov-13 23:00N 35°56' W 005°28'26 1.5
2017-Nov-13 06:00N 35°54' W 006°00'54 9.0 280 / 111018.910.8 17.413.918.0
2017-Nov-13 00:00N 36°00' W 007°06'5217.1 340 / 121020.610.8 19.212.219.0
2017-Nov-12 20:56N 36°19' W 008°06'1116.2
2017-Nov-12 20:16N 36°21' W 008°20'3216.0
2017-Nov-12 18:15N 36°30' W 008°58'2 6.6
2017-Nov-12 18:00N 36°30' W 009°00'1020.8 350 / 151021.910.8 16.413.118.0
2017-Nov-12 17:31N 36°33' W 009°11'515.3
2017-Nov-12 17:10N 36°36' W 009°18'416.2
2017-Nov-12 16:57N 36°38' W 009°21'716.2
2017-Nov-12 16:30N 36°44' W 009°27'816.3
2017-Nov-12 16:00N 36°50' W 009°33'816.3
2017-Nov-12 15:30N 36°58' W 009°36'816.3
2017-Nov-12 14:59N 37°06' W 009°38'816.4
2017-Nov-12 14:30N 37°13' W 009°41'916.2
2017-Nov-12 13:57N 37°22' W 009°44'716.6
2017-Nov-12 13:30N 37°29' W 009°46'816.5
2017-Nov-12 13:00N 37°37' W 009°48'816.3
2017-Nov-12 12:30N 37°45' W 009°51'816.1
2017-Nov-12 12:00N 37°53' W 009°53'816.5
2017-Nov-12 11:30N 38°01' W 009°55'816.2
2017-Nov-12 11:00N 38°09' W 009°58'816.1
2017-Nov-12 10:30N 38°17' W 009°60'815.8
2017-Nov-12 10:00N 38°25' W 010°02'815.7
2017-Nov-12 09:30N 38°32' W 010°05'815.6
2017-Nov-12 09:00N 38°40' W 010°07'815.4
2017-Nov-12 08:30N 38°48' W 010°07'815.6
2017-Nov-12 08:00N 38°55' W 010°07'815.6
2017-Nov-12 07:30N 39°03' W 010°07'815.6
2017-Nov-12 07:00N 39°11' W 010°07'815.9
2017-Nov-12 06:30N 39°19' W 010°07'816.3
2017-Nov-12 06:00N 39°27' W 010°08'151031.9
2017-Nov-12 06:00N 39°42' W 010°06'712.8 350 / 191026.710.8 16.611.715.0
2017-Nov-12 05:29N 39°36' W 010°07'7216.1
2017-Nov-12 01:00N 40°48' W 010°06'10815.4 020 / 141028.810.8 15.1 7.916.0
2017-Nov-11 18:00N 42°36' W 010°06'20116.8 360 / 181030.310.8 16.511.215.0
2017-Nov-11 06:00N 45°42' W 008°18'6912.6 280 / 171030.610.8 15.511.815.0
2017-Nov-11 00:30N 46°44' W 007°34'2752.6
2017-Nov-11 00:00N 46°18' W 007°24'4063.7 320 / 151030.510.8 14.811.012.0
2017-Nov-10 23:22N 46°58' W 007°21'815.1
2017-Nov-10 22:50N 47°05' W 007°15'1215.5
2017-Nov-10 22:05N 47°15' W 007°07'515.1
2017-Nov-10 21:44N 47°20' W 007°03'515.1
2017-Nov-10 21:23N 47°24' W 006°58'614.9
2017-Nov-10 21:00N 47°29' W 006°54'1514.7
2017-Nov-10 20:00N 47°42' W 006°44'2414.5
2017-Nov-10 18:21N 48°02' W 006°26'617.5
2017-Nov-10 18:00N 48°06' W 006°18'914.9 300 / 181030.4 5.4 12.911.312.0
2017-Nov-10 17:22N 48°15' W 006°16'615.1
2017-Nov-10 16:58N 48°20' W 006°12'715.3
2017-Nov-10 16:30N 48°27' W 006°07'815.6
2017-Nov-10 16:00N 48°34' W 006°01'815.8
2017-Nov-10 15:30N 48°40' W 005°55'816.2
2017-Nov-10 15:00N 48°48' W 005°49'713.4
2017-Nov-10 14:30N 48°53' W 005°43'612.1
2017-Nov-10 14:00N 48°57' W 005°37'611.9
2017-Nov-10 13:30N 49°01' W 005°30'3111.1
2017-Nov-10 10:44N 49°16' W 004°49'5010.6
2017-Nov-10 06:00N 49°42' W 003°42'1110.2 280 / 241023.610.8 13.410.413.0
2017-Nov-10 04:52N 49°47' W 003°26'412.3
2017-Nov-10 04:30N 49°49' W 003°20'612.3
2017-Nov-10 04:00N 49°52' W 003°12'612.2
2017-Nov-10 03:30N 49°55' W 003°04'611.8
2017-Nov-10 03:00N 49°58' W 002°56'611.3
2017-Nov-10 02:30N 49°60' W 002°47'510.9
2017-Nov-10 02:00N 50°01' W 002°39'510.4
2017-Nov-10 01:30N 50°02' W 002°31'5 9.9
2017-Nov-10 01:00N 50°04' W 002°24'7 9.2
2017-Nov-10 00:15N 50°05' W 002°13'517.8
2017-Nov-10 00:00N 50°06' W 002°06'2217.9 290 / 61024.210.8 13.010.013.0
2017-Nov-09 23:59N 50°06' W 002°10'4 8.7
2017-Nov-09 23:31N 50°07' W 002°03'4 8.8
2017-Nov-09 23:00N 50°08' W 001°57'5 9.3
2017-Nov-09 22:30N 50°10' W 001°50'5 9.9
2017-Nov-09 22:00N 50°11' W 001°42'510.6
2017-Nov-09 21:30N 50°12' W 001°34'611.4
2017-Nov-09 21:00N 50°14' W 001°26'612.3
2017-Nov-09 20:30N 50°15' W 001°17'713.3
2017-Nov-09 20:01N 50°17' W 001°07'713.9
2017-Nov-09 19:30N 50°19' W 000°56'714.0
2017-Nov-09 19:01N 50°21' W 000°46'244239.5
2017-Nov-09 18:00N 54°24' W 000°24'2402134.4 270 / 101023.610.8 13.8 8.813.0
2017-Nov-09 17:53N 50°24' W 000°22'614.1
2017-Nov-09 17:27N 50°26' W 000°13'715.1
2017-Nov-09 17:00N 50°28' W 000°02'714.8
2017-Nov-09 16:30N 50°30' E 000°09'714.4
2017-Nov-09 16:00N 50°32' E 000°20'714.0
2017-Nov-09 15:30N 50°34' E 000°30'713.3
2017-Nov-09 15:00N 50°37' E 000°40'713.1
2017-Nov-09 14:30N 50°41' E 000°48'612.7
2017-Nov-09 14:00N 50°45' E 000°56'612.6
2017-Nov-09 13:30N 50°49' E 001°04'612.7
2017-Nov-09 13:00N 50°53' E 001°12'713.4
2017-Nov-09 12:30N 50°57' E 001°20'714.6
2017-Nov-09 12:00N 51°02' E 001°28'815.7
2017-Nov-09 11:30N 51°07' E 001°37'815.9
2017-Nov-09 11:00N 51°14' E 001°45'815.8
2017-Nov-09 10:30N 51°21' E 001°51'714.7
2017-Nov-09 10:00N 51°27' E 001°57'714.4
2017-Nov-09 09:30N 51°32' E 002°05'713.8
2017-Nov-09 09:00N 51°37' E 002°13'713.6
2017-Nov-09 08:30N 51°42' E 002°20'713.1
2017-Nov-09 08:00N 51°47' E 002°27'612.9
2017-Nov-09 07:30N 51°52' E 002°33'612.7
2017-Nov-09 07:00N 51°57' E 002°40'612.4
2017-Nov-09 06:30N 52°02' E 002°46'612.3
2017-Nov-09 06:00N 52°07' E 002°53'7737.0
2017-Nov-09 06:00N 52°00' E 002°48'2118.6 270 / 101022.010.8 9.6 4.814.0
2017-Nov-09 04:50N 52°19' E 003°04'512.6
2017-Nov-09 04:29N 52°23' E 003°08'1613.3
2017-Nov-09 03:18N 52°35' E 003°25'614.3
2017-Nov-09 02:54N 52°39' E 003°31'614.6
2017-Nov-09 02:30N 52°44' E 003°37'714.8
2017-Nov-09 02:00N 52°50' E 003°44'714.7
2017-Nov-09 01:30N 52°54' E 003°53'714.8
2017-Nov-09 01:00N 52°59' E 004°03'714.8
2017-Nov-09 00:30N 53°03' E 004°13'714.7
2017-Nov-09 00:00N 53°09' E 004°21'714.5
2017-Nov-08 23:30N 53°15' E 004°28'1613.3
2017-Nov-08 22:19N 53°29' E 004°40'513.2
2017-Nov-08 21:58N 53°31' E 004°47'613.0
2017-Nov-08 21:30N 53°34' E 004°56'612.8
2017-Nov-08 21:00N 53°36' E 005°06'612.7
2017-Nov-08 20:30N 53°38' E 005°16'613.0
2017-Nov-08 20:00N 53°40' E 005°27'713.5
2017-Nov-08 19:31N 53°43' E 005°37'7314.9
2017-Nov-08 14:38N 54°01' E 007°36'213.6
2017-Nov-08 14:30N 54°02' E 007°39'713.5
2017-Nov-08 14:00N 54°02' E 007°51'713.7
2017-Nov-08 13:31N 54°01' E 008°02'713.1
2017-Nov-08 13:00N 54°00' E 008°13'714.7
2017-Nov-08 12:30N 53°59' E 008°25'714.9
2017-Nov-08 12:00N 53°57' E 008°38'612.2
2017-Nov-08 11:30N 53°52' E 008°44'612.7
2017-Nov-08 11:00N 53°51' E 008°54'815.3
2017-Nov-08 10:30N 53°53' E 009°06'612.3
2017-Nov-08 10:00N 53°52' E 009°17'815.5
2017-Nov-08 09:31N 53°46' E 009°24'815.3
2017-Nov-08 09:01N 53°39' E 009°31'714.2
2017-Nov-08 08:31N 53°34' E 009°39'611.4
2017-Nov-08 08:00N 53°33' E 009°49'5 9.0
2017-Nov-08 07:30N 53°32' E 009°56'2 3.3
2017-Nov-08 07:00N 53°30' E 009°56'0 0.0
2017-Nov-08 06:29N 53°30' E 009°56'  

Dump ship's entire track history